sensor_id;sensor_type;location;lat;lon;timestamp;P1;durP1;ratioP1;P2;durP2;ratioP2
12120;SDS011;6124;59.460;17.908;2022-12-07T00:00:23;5.83;;;3.33;;
12120;SDS011;6124;59.460;17.908;2022-12-07T00:02:50;5.13;;;3.03;;
12120;SDS011;6124;59.460;17.908;2022-12-07T00:05:17;7.43;;;3.10;;
12120;SDS011;6124;59.460;17.908;2022-12-07T00:07:45;6.33;;;3.37;;
12120;SDS011;6124;59.460;17.908;2022-12-07T00:10:12;6.40;;;3.03;;
12120;SDS011;6124;59.460;17.908;2022-12-07T00:12:40;6.40;;;3.37;;
12120;SDS011;6124;59.460;17.908;2022-12-07T00:15:08;8.43;;;3.10;;
12120;SDS011;6124;59.460;17.908;2022-12-07T00:17:35;9.53;;;3.03;;
12120;SDS011;6124;59.460;17.908;2022-12-07T00:20:03;6.93;;;3.20;;
12120;SDS011;6124;59.460;17.908;2022-12-07T00:22:30;5.10;;;2.77;;
12120;SDS011;6124;59.460;17.908;2022-12-07T00:24:57;6.17;;;2.97;;
12120;SDS011;6124;59.460;17.908;2022-12-07T00:27:25;7.17;;;2.77;;
12120;SDS011;6124;59.460;17.908;2022-12-07T00:29:55;6.90;;;3.00;;
12120;SDS011;6124;59.460;17.908;2022-12-07T00:32:22;7.27;;;3.30;;
12120;SDS011;6124;59.460;17.908;2022-12-07T00:34:49;6.33;;;2.80;;
12120;SDS011;6124;59.460;17.908;2022-12-07T00:37:16;6.40;;;2.87;;
12120;SDS011;6124;59.460;17.908;2022-12-07T00:39:45;7.17;;;2.77;;
12120;SDS011;6124;59.460;17.908;2022-12-07T00:42:12;6.87;;;3.60;;
12120;SDS011;6124;59.460;17.908;2022-12-07T00:44:39;9.13;;;3.40;;
12120;SDS011;6124;59.460;17.908;2022-12-07T00:47:08;6.13;;;2.70;;
12120;SDS011;6124;59.460;17.908;2022-12-07T00:49:35;4.47;;;2.40;;
12120;SDS011;6124;59.460;17.908;2022-12-07T00:52:03;8.97;;;3.13;;
12120;SDS011;6124;59.460;17.908;2022-12-07T00:54:30;7.63;;;2.70;;
12120;SDS011;6124;59.460;17.908;2022-12-07T00:56:57;5.60;;;2.73;;
12120;SDS011;6124;59.460;17.908;2022-12-07T00:59:25;6.07;;;2.50;;
12120;SDS011;6124;59.460;17.908;2022-12-07T01:01:52;6.77;;;2.63;;
12120;SDS011;6124;59.460;17.908;2022-12-07T01:04:20;5.87;;;2.90;;
12120;SDS011;6124;59.460;17.908;2022-12-07T01:06:48;5.30;;;2.53;;
12120;SDS011;6124;59.460;17.908;2022-12-07T01:09:15;5.27;;;2.50;;
12120;SDS011;6124;59.460;17.908;2022-12-07T01:11:42;3.47;;;2.63;;
12120;SDS011;6124;59.460;17.908;2022-12-07T01:14:09;4.93;;;2.33;;
12120;SDS011;6124;59.460;17.908;2022-12-07T01:16:38;4.23;;;2.57;;
12120;SDS011;6124;59.460;17.908;2022-12-07T01:19:05;4.10;;;2.70;;
12120;SDS011;6124;59.460;17.908;2022-12-07T01:21:34;6.13;;;2.33;;
12120;SDS011;6124;59.460;17.908;2022-12-07T01:24:03;3.80;;;2.20;;
12120;SDS011;6124;59.460;17.908;2022-12-07T01:26:30;7.70;;;2.50;;
12120;SDS011;6124;59.460;17.908;2022-12-07T01:28:57;4.60;;;2.30;;
12120;SDS011;6124;59.460;17.908;2022-12-07T01:31:26;4.93;;;2.30;;
12120;SDS011;6124;59.460;17.908;2022-12-07T01:33:54;7.00;;;2.70;;
12120;SDS011;6124;59.460;17.908;2022-12-07T01:36:22;5.60;;;2.40;;
12120;SDS011;6124;59.460;17.908;2022-12-07T01:38:53;4.13;;;2.37;;
12120;SDS011;6124;59.460;17.908;2022-12-07T01:41:21;5.40;;;2.53;;
12120;SDS011;6124;59.460;17.908;2022-12-07T01:44:08;6.27;;;2.50;;
12120;SDS011;6124;59.460;17.908;2022-12-07T01:46:36;4.13;;;2.37;;
12120;SDS011;6124;59.460;17.908;2022-12-07T01:49:04;4.90;;;2.37;;
12120;SDS011;6124;59.460;17.908;2022-12-07T01:51:32;4.97;;;2.50;;
12120;SDS011;6124;59.460;17.908;2022-12-07T01:54:02;5.87;;;2.70;;
12120;SDS011;6124;59.460;17.908;2022-12-07T01:56:29;7.83;;;2.60;;
12120;SDS011;6124;59.460;17.908;2022-12-07T01:58:57;3.87;;;2.30;;
12120;SDS011;6124;59.460;17.908;2022-12-07T02:01:25;5.80;;;2.20;;
12120;SDS011;6124;59.460;17.908;2022-12-07T02:03:53;5.27;;;2.37;;
12120;SDS011;6124;59.460;17.908;2022-12-07T02:06:20;6.20;;;3.00;;
12120;SDS011;6124;59.460;17.908;2022-12-07T02:08:50;4.90;;;2.60;;
12120;SDS011;6124;59.460;17.908;2022-12-07T02:11:18;3.93;;;2.17;;
12120;SDS011;6124;59.460;17.908;2022-12-07T02:13:46;5.37;;;2.30;;
12120;SDS011;6124;59.460;17.908;2022-12-07T02:16:17;5.13;;;2.50;;
12120;SDS011;6124;59.460;17.908;2022-12-07T02:18:51;4.43;;;2.10;;
12120;SDS011;6124;59.460;17.908;2022-12-07T02:21:24;3.80;;;2.30;;
12120;SDS011;6124;59.460;17.908;2022-12-07T02:24:02;4.33;;;2.50;;
12120;SDS011;6124;59.460;17.908;2022-12-07T02:26:45;3.70;;;2.43;;
12120;SDS011;6124;59.460;17.908;2022-12-07T02:29:19;8.50;;;2.73;;
12120;SDS011;6124;59.460;17.908;2022-12-07T02:31:50;4.30;;;2.03;;
12120;SDS011;6124;59.460;17.908;2022-12-07T02:34:24;4.67;;;2.13;;
12120;SDS011;6124;59.460;17.908;2022-12-07T02:36:54;3.77;;;2.20;;
12120;SDS011;6124;59.460;17.908;2022-12-07T02:39:25;6.63;;;2.43;;
12120;SDS011;6124;59.460;17.908;2022-12-07T02:41:59;4.97;;;2.43;;
12120;SDS011;6124;59.460;17.908;2022-12-07T02:44:30;3.10;;;1.90;;
12120;SDS011;6124;59.460;17.908;2022-12-07T02:46:58;4.43;;;2.30;;
12120;SDS011;6124;59.460;17.908;2022-12-07T02:49:26;6.30;;;2.30;;
12120;SDS011;6124;59.460;17.908;2022-12-07T02:51:55;3.27;;;2.00;;
12120;SDS011;6124;59.460;17.908;2022-12-07T02:54:22;5.13;;;2.30;;
12120;SDS011;6124;59.460;17.908;2022-12-07T02:56:50;7.90;;;2.27;;
12120;SDS011;6124;59.460;17.908;2022-12-07T02:59:22;2.93;;;1.90;;
12120;SDS011;6124;59.460;17.908;2022-12-07T03:01:55;4.43;;;1.87;;
12120;SDS011;6124;59.460;17.908;2022-12-07T03:04:32;6.53;;;2.60;;
12120;SDS011;6124;59.460;17.908;2022-12-07T03:07:02;3.50;;;2.30;;
12120;SDS011;6124;59.460;17.908;2022-12-07T03:09:32;3.37;;;1.80;;
12120;SDS011;6124;59.460;17.908;2022-12-07T03:12:05;4.53;;;2.10;;
12120;SDS011;6124;59.460;17.908;2022-12-07T03:14:34;5.07;;;2.43;;
12120;SDS011;6124;59.460;17.908;2022-12-07T03:17:07;6.63;;;2.17;;
12120;SDS011;6124;59.460;17.908;2022-12-07T03:19:37;5.23;;;2.20;;
12120;SDS011;6124;59.460;17.908;2022-12-07T03:22:07;4.37;;;2.17;;
12120;SDS011;6124;59.460;17.908;2022-12-07T03:24:35;8.00;;;2.30;;
12120;SDS011;6124;59.460;17.908;2022-12-07T03:27:05;5.27;;;2.33;;
12120;SDS011;6124;59.460;17.908;2022-12-07T03:29:34;6.77;;;2.73;;
12120;SDS011;6124;59.460;17.908;2022-12-07T03:32:02;4.40;;;2.00;;
12120;SDS011;6124;59.460;17.908;2022-12-07T03:34:34;5.57;;;2.10;;
12120;SDS011;6124;59.460;17.908;2022-12-07T03:37:02;3.60;;;2.10;;
12120;SDS011;6124;59.460;17.908;2022-12-07T03:39:33;5.50;;;1.87;;
12120;SDS011;6124;59.460;17.908;2022-12-07T03:42:01;5.03;;;2.60;;
12120;SDS011;6124;59.460;17.908;2022-12-07T03:44:29;4.67;;;1.97;;
12120;SDS011;6124;59.460;17.908;2022-12-07T03:47:00;3.03;;;1.80;;
12120;SDS011;6124;59.460;17.908;2022-12-07T03:49:30;4.30;;;2.37;;
12120;SDS011;6124;59.460;17.908;2022-12-07T03:52:02;4.97;;;1.77;;
12120;SDS011;6124;59.460;17.908;2022-12-07T03:54:32;2.70;;;1.97;;
12120;SDS011;6124;59.460;17.908;2022-12-07T03:57:00;5.23;;;2.20;;
12120;SDS011;6124;59.460;17.908;2022-12-07T03:59:28;6.33;;;2.47;;
12120;SDS011;6124;59.460;17.908;2022-12-07T04:01:57;3.73;;;2.10;;
12120;SDS011;6124;59.460;17.908;2022-12-07T04:04:28;5.87;;;2.37;;
12120;SDS011;6124;59.460;17.908;2022-12-07T04:06:55;5.33;;;1.80;;
12120;SDS011;6124;59.460;17.908;2022-12-07T04:09:23;4.70;;;2.17;;
12120;SDS011;6124;59.460;17.908;2022-12-07T04:11:51;6.17;;;2.00;;
12120;SDS011;6124;59.460;17.908;2022-12-07T04:14:18;4.00;;;2.00;;
12120;SDS011;6124;59.460;17.908;2022-12-07T04:16:45;6.00;;;2.03;;
12120;SDS011;6124;59.460;17.908;2022-12-07T04:19:13;6.87;;;2.33;;
12120;SDS011;6124;59.460;17.908;2022-12-07T04:21:40;6.10;;;2.13;;
12120;SDS011;6124;59.460;17.908;2022-12-07T04:24:08;5.80;;;2.00;;
12120;SDS011;6124;59.460;17.908;2022-12-07T04:26:37;4.73;;;2.37;;
12120;SDS011;6124;59.460;17.908;2022-12-07T04:29:04;4.97;;;2.33;;
12120;SDS011;6124;59.460;17.908;2022-12-07T04:31:31;5.07;;;2.40;;
12120;SDS011;6124;59.460;17.908;2022-12-07T04:33:58;5.27;;;2.40;;
12120;SDS011;6124;59.460;17.908;2022-12-07T04:36:26;4.33;;;2.60;;
12120;SDS011;6124;59.460;17.908;2022-12-07T04:38:53;5.47;;;2.40;;
12120;SDS011;6124;59.460;17.908;2022-12-07T04:41:21;4.80;;;2.20;;
12120;SDS011;6124;59.460;17.908;2022-12-07T04:43:53;4.50;;;2.10;;
12120;SDS011;6124;59.460;17.908;2022-12-07T04:46:21;3.73;;;2.10;;
12120;SDS011;6124;59.460;17.908;2022-12-07T04:48:48;5.30;;;2.50;;
12120;SDS011;6124;59.460;17.908;2022-12-07T04:51:18;4.27;;;1.93;;
12120;SDS011;6124;59.460;17.908;2022-12-07T04:53:46;3.23;;;2.17;;
12120;SDS011;6124;59.460;17.908;2022-12-07T04:56:13;5.70;;;2.53;;
12120;SDS011;6124;59.460;17.908;2022-12-07T04:58:40;4.03;;;2.17;;
12120;SDS011;6124;59.460;17.908;2022-12-07T05:01:09;4.67;;;2.50;;
12120;SDS011;6124;59.460;17.908;2022-12-07T05:03:36;8.17;;;2.60;;
12120;SDS011;6124;59.460;17.908;2022-12-07T05:06:04;6.07;;;2.50;;
12120;SDS011;6124;59.460;17.908;2022-12-07T05:08:31;9.37;;;3.20;;
12120;SDS011;6124;59.460;17.908;2022-12-07T05:10:59;6.77;;;2.87;;
12120;SDS011;6124;59.460;17.908;2022-12-07T05:13:26;7.10;;;2.70;;
12120;SDS011;6124;59.460;17.908;2022-12-07T05:15:54;6.07;;;3.00;;
12120;SDS011;6124;59.460;17.908;2022-12-07T05:18:22;6.63;;;2.97;;
12120;SDS011;6124;59.460;17.908;2022-12-07T05:20:50;5.53;;;2.73;;
12120;SDS011;6124;59.460;17.908;2022-12-07T05:23:17;3.93;;;2.90;;
12120;SDS011;6124;59.460;17.908;2022-12-07T05:25:44;5.77;;;3.47;;
12120;SDS011;6124;59.460;17.908;2022-12-07T05:28:12;9.60;;;3.43;;
12120;SDS011;6124;59.460;17.908;2022-12-07T05:30:39;5.40;;;2.67;;
12120;SDS011;6124;59.460;17.908;2022-12-07T05:33:06;9.03;;;3.27;;
12120;SDS011;6124;59.460;17.908;2022-12-07T05:35:35;7.90;;;3.30;;
12120;SDS011;6124;59.460;17.908;2022-12-07T05:38:02;5.77;;;2.53;;
12120;SDS011;6124;59.460;17.908;2022-12-07T05:40:30;4.20;;;2.53;;
12120;SDS011;6124;59.460;17.908;2022-12-07T05:42:57;5.17;;;2.60;;
12120;SDS011;6124;59.460;17.908;2022-12-07T05:45:24;6.10;;;2.60;;
12120;SDS011;6124;59.460;17.908;2022-12-07T05:47:51;4.70;;;2.70;;
12120;SDS011;6124;59.460;17.908;2022-12-07T05:50:20;5.00;;;2.57;;
12120;SDS011;6124;59.460;17.908;2022-12-07T05:52:49;6.70;;;2.70;;
12120;SDS011;6124;59.460;17.908;2022-12-07T05:55:16;5.47;;;2.60;;
12120;SDS011;6124;59.460;17.908;2022-12-07T05:57:43;5.57;;;2.70;;
12120;SDS011;6124;59.460;17.908;2022-12-07T06:00:30;7.47;;;2.73;;
12120;SDS011;6124;59.460;17.908;2022-12-07T06:02:57;7.77;;;3.30;;
12120;SDS011;6124;59.460;17.908;2022-12-07T06:05:24;6.53;;;2.80;;
12120;SDS011;6124;59.460;17.908;2022-12-07T06:07:53;6.40;;;2.97;;
12120;SDS011;6124;59.460;17.908;2022-12-07T06:10:20;4.73;;;2.87;;
12120;SDS011;6124;59.460;17.908;2022-12-07T06:12:47;7.40;;;2.70;;
12120;SDS011;6124;59.460;17.908;2022-12-07T06:15:13;8.20;;;2.90;;
12120;SDS011;6124;59.460;17.908;2022-12-07T06:17:41;6.80;;;2.50;;
12120;SDS011;6124;59.460;17.908;2022-12-07T06:20:08;6.13;;;2.80;;
12120;SDS011;6124;59.460;17.908;2022-12-07T06:22:35;5.70;;;2.47;;
12120;SDS011;6124;59.460;17.908;2022-12-07T06:25:04;6.87;;;3.23;;
12120;SDS011;6124;59.460;17.908;2022-12-07T06:27:32;5.60;;;2.17;;
12120;SDS011;6124;59.460;17.908;2022-12-07T06:30:00;4.10;;;2.23;;
12120;SDS011;6124;59.460;17.908;2022-12-07T06:32:31;3.83;;;2.20;;
12120;SDS011;6124;59.460;17.908;2022-12-07T06:34:59;4.53;;;2.77;;
12120;SDS011;6124;59.460;17.908;2022-12-07T06:37:26;3.70;;;2.43;;
12120;SDS011;6124;59.460;17.908;2022-12-07T06:39:53;6.13;;;2.57;;
12120;SDS011;6124;59.460;17.908;2022-12-07T06:42:22;4.10;;;2.30;;
12120;SDS011;6124;59.460;17.908;2022-12-07T06:44:49;4.67;;;2.70;;
12120;SDS011;6124;59.460;17.908;2022-12-07T06:47:17;4.50;;;2.73;;
12120;SDS011;6124;59.460;17.908;2022-12-07T06:49:44;5.57;;;2.40;;
12120;SDS011;6124;59.460;17.908;2022-12-07T06:52:11;7.53;;;2.70;;
12120;SDS011;6124;59.460;17.908;2022-12-07T06:54:38;4.07;;;2.37;;
12120;SDS011;6124;59.460;17.908;2022-12-07T06:57:06;5.30;;;2.73;;
12120;SDS011;6124;59.460;17.908;2022-12-07T06:59:34;5.57;;;2.40;;
12120;SDS011;6124;59.460;17.908;2022-12-07T07:02:01;4.10;;;2.40;;
12120;SDS011;6124;59.460;17.908;2022-12-07T07:04:29;7.60;;;2.87;;
12120;SDS011;6124;59.460;17.908;2022-12-07T07:06:56;6.27;;;2.47;;
12120;SDS011;6124;59.460;17.908;2022-12-07T07:09:23;7.13;;;3.13;;
12120;SDS011;6124;59.460;17.908;2022-12-07T07:11:51;7.03;;;2.50;;
12120;SDS011;6124;59.460;17.908;2022-12-07T07:14:18;4.13;;;2.47;;
12120;SDS011;6124;59.460;17.908;2022-12-07T07:16:47;4.83;;;2.70;;
12120;SDS011;6124;59.460;17.908;2022-12-07T07:19:14;7.73;;;2.73;;
12120;SDS011;6124;59.460;17.908;2022-12-07T07:21:42;9.97;;;3.07;;
12120;SDS011;6124;59.460;17.908;2022-12-07T07:24:09;6.67;;;3.20;;
12120;SDS011;6124;59.460;17.908;2022-12-07T07:26:36;7.47;;;3.20;;
12120;SDS011;6124;59.460;17.908;2022-12-07T07:29:04;6.67;;;2.63;;
12120;SDS011;6124;59.460;17.908;2022-12-07T07:31:31;5.97;;;2.97;;
12120;SDS011;6124;59.460;17.908;2022-12-07T07:34:01;8.50;;;2.97;;
12120;SDS011;6124;59.460;17.908;2022-12-07T07:36:29;6.10;;;2.70;;
12120;SDS011;6124;59.460;17.908;2022-12-07T07:38:56;6.23;;;2.70;;
12120;SDS011;6124;59.460;17.908;2022-12-07T07:41:23;5.90;;;2.27;;
12120;SDS011;6124;59.460;17.908;2022-12-07T07:43:50;6.93;;;2.70;;
12120;SDS011;6124;59.460;17.908;2022-12-07T07:46:18;8.93;;;2.90;;
12120;SDS011;6124;59.460;17.908;2022-12-07T07:48:45;7.23;;;2.80;;
12120;SDS011;6124;59.460;17.908;2022-12-07T07:51:14;4.30;;;2.70;;
12120;SDS011;6124;59.460;17.908;2022-12-07T07:53:41;6.07;;;2.70;;
12120;SDS011;6124;59.460;17.908;2022-12-07T07:56:08;6.73;;;2.60;;
12120;SDS011;6124;59.460;17.908;2022-12-07T07:58:35;7.27;;;2.80;;
12120;SDS011;6124;59.460;17.908;2022-12-07T08:01:04;6.60;;;3.27;;
12120;SDS011;6124;59.460;17.908;2022-12-07T08:03:31;6.20;;;2.70;;
12120;SDS011;6124;59.460;17.908;2022-12-07T08:05:58;8.87;;;3.70;;
12120;SDS011;6124;59.460;17.908;2022-12-07T08:08:27;5.60;;;3.27;;
12120;SDS011;6124;59.460;17.908;2022-12-07T08:10:54;8.83;;;3.93;;
12120;SDS011;6124;59.460;17.908;2022-12-07T08:13:25;9.23;;;3.90;;
12120;SDS011;6124;59.460;17.908;2022-12-07T08:15:53;7.20;;;4.17;;
12120;SDS011;6124;59.460;17.908;2022-12-07T08:18:20;10.63;;;3.93;;
12120;SDS011;6124;59.460;17.908;2022-12-07T08:20:47;10.50;;;3.70;;
12120;SDS011;6124;59.460;17.908;2022-12-07T08:23:14;7.83;;;4.60;;
12120;SDS011;6124;59.460;17.908;2022-12-07T08:25:43;8.53;;;4.23;;
12120;SDS011;6124;59.460;17.908;2022-12-07T08:28:10;8.70;;;3.47;;
12120;SDS011;6124;59.460;17.908;2022-12-07T08:30:37;6.80;;;3.47;;
12120;SDS011;6124;59.460;17.908;2022-12-07T08:33:05;6.30;;;3.30;;
12120;SDS011;6124;59.460;17.908;2022-12-07T08:35:32;6.90;;;3.37;;
12120;SDS011;6124;59.460;17.908;2022-12-07T08:38:00;6.30;;;3.10;;
12120;SDS011;6124;59.460;17.908;2022-12-07T08:40:27;4.13;;;2.77;;
12120;SDS011;6124;59.460;17.908;2022-12-07T08:42:56;8.87;;;2.97;;
12120;SDS011;6124;59.460;17.908;2022-12-07T08:45:23;6.13;;;2.70;;
12120;SDS011;6124;59.460;17.908;2022-12-07T08:47:50;6.10;;;2.80;;
12120;SDS011;6124;59.460;17.908;2022-12-07T08:50:19;7.00;;;2.00;;
12120;SDS011;6124;59.460;17.908;2022-12-07T08:52:47;6.53;;;2.50;;
12120;SDS011;6124;59.460;17.908;2022-12-07T08:55:15;8.33;;;2.97;;
12120;SDS011;6124;59.460;17.908;2022-12-07T08:57:42;8.23;;;2.63;;
12120;SDS011;6124;59.460;17.908;2022-12-07T09:00:12;7.07;;;2.73;;
12120;SDS011;6124;59.460;17.908;2022-12-07T09:02:39;6.33;;;2.60;;
12120;SDS011;6124;59.460;17.908;2022-12-07T09:05:07;7.97;;;2.90;;
12120;SDS011;6124;59.460;17.908;2022-12-07T09:07:34;6.67;;;2.73;;
12120;SDS011;6124;59.460;17.908;2022-12-07T09:10:02;8.27;;;3.33;;
12120;SDS011;6124;59.460;17.908;2022-12-07T09:12:30;5.40;;;2.70;;
12120;SDS011;6124;59.460;17.908;2022-12-07T09:14:57;9.67;;;2.93;;
12120;SDS011;6124;59.460;17.908;2022-12-07T09:17:27;5.43;;;2.60;;
12120;SDS011;6124;59.460;17.908;2022-12-07T09:19:54;8.30;;;2.93;;
12120;SDS011;6124;59.460;17.908;2022-12-07T09:22:21;8.87;;;2.90;;
12120;SDS011;6124;59.460;17.908;2022-12-07T09:24:49;6.33;;;2.73;;
12120;SDS011;6124;59.460;17.908;2022-12-07T09:27:16;6.60;;;3.00;;
12120;SDS011;6124;59.460;17.908;2022-12-07T09:29:43;8.43;;;3.53;;
12120;SDS011;6124;59.460;17.908;2022-12-07T09:32:10;6.00;;;2.80;;
12120;SDS011;6124;59.460;17.908;2022-12-07T09:34:39;10.47;;;3.57;;
12120;SDS011;6124;59.460;17.908;2022-12-07T09:37:07;7.97;;;3.03;;
12120;SDS011;6124;59.460;17.908;2022-12-07T09:39:34;9.40;;;3.03;;
12120;SDS011;6124;59.460;17.908;2022-12-07T09:42:02;9.00;;;3.37;;
12120;SDS011;6124;59.460;17.908;2022-12-07T09:44:30;5.67;;;2.80;;
12120;SDS011;6124;59.460;17.908;2022-12-07T09:46:58;7.10;;;3.27;;
12120;SDS011;6124;59.460;17.908;2022-12-07T09:49:27;6.23;;;2.90;;
12120;SDS011;6124;59.460;17.908;2022-12-07T09:52:03;7.80;;;3.23;;
12120;SDS011;6124;59.460;17.908;2022-12-07T09:54:44;9.87;;;3.30;;
12120;SDS011;6124;59.460;17.908;2022-12-07T09:57:12;9.17;;;3.00;;
12120;SDS011;6124;59.460;17.908;2022-12-07T09:59:40;8.53;;;3.20;;
12120;SDS011;6124;59.460;17.908;2022-12-07T10:02:21;8.40;;;3.20;;
12120;SDS011;6124;59.460;17.908;2022-12-07T10:04:50;8.33;;;2.73;;
12120;SDS011;6124;59.460;17.908;2022-12-07T10:07:19;5.77;;;2.50;;
12120;SDS011;6124;59.460;17.908;2022-12-07T10:09:46;5.07;;;3.57;;
12120;SDS011;6124;59.460;17.908;2022-12-07T10:12:14;6.90;;;3.60;;
12120;SDS011;6124;59.460;17.908;2022-12-07T10:14:52;4.07;;;2.37;;
12120;SDS011;6124;59.460;17.908;2022-12-07T10:17:30;8.77;;;3.27;;
12120;SDS011;6124;59.460;17.908;2022-12-07T10:20:14;5.30;;;2.50;;
12120;SDS011;6124;59.460;17.908;2022-12-07T10:22:55;5.37;;;2.60;;
12120;SDS011;6124;59.460;17.908;2022-12-07T10:25:22;9.10;;;2.40;;
12120;SDS011;6124;59.460;17.908;2022-12-07T10:27:57;6.20;;;2.30;;
12120;SDS011;6124;59.460;17.908;2022-12-07T10:30:24;4.73;;;2.60;;
12120;SDS011;6124;59.460;17.908;2022-12-07T10:32:51;4.00;;;2.20;;
12120;SDS011;6124;59.460;17.908;2022-12-07T10:35:20;2.83;;;2.23;;
12120;SDS011;6124;59.460;17.908;2022-12-07T10:37:48;8.57;;;2.10;;
12120;SDS011;6124;59.460;17.908;2022-12-07T10:43:03;5.07;;;2.23;;
12120;SDS011;6124;59.460;17.908;2022-12-07T10:45:30;6.13;;;2.40;;
12120;SDS011;6124;59.460;17.908;2022-12-07T10:47:59;5.83;;;2.40;;
12120;SDS011;6124;59.460;17.908;2022-12-07T10:53:23;4.40;;;2.20;;
12120;SDS011;6124;59.460;17.908;2022-12-07T10:56:01;5.53;;;2.27;;
12120;SDS011;6124;59.460;17.908;2022-12-07T10:58:35;2.80;;;2.00;;
12120;SDS011;6124;59.460;17.908;2022-12-07T11:01:05;5.50;;;2.33;;
12120;SDS011;6124;59.460;17.908;2022-12-07T11:03:44;7.50;;;3.37;;
12120;SDS011;6124;59.460;17.908;2022-12-07T11:06:16;6.40;;;2.80;;
12120;SDS011;6124;59.460;17.908;2022-12-07T11:08:50;4.63;;;2.40;;
12120;SDS011;6124;59.460;17.908;2022-12-07T11:11:21;5.17;;;2.17;;
12120;SDS011;6124;59.460;17.908;2022-12-07T11:13:53;4.47;;;2.20;;
12120;SDS011;6124;59.460;17.908;2022-12-07T11:16:24;4.83;;;2.00;;
12120;SDS011;6124;59.460;17.908;2022-12-07T11:21:45;4.13;;;1.90;;
12120;SDS011;6124;59.460;17.908;2022-12-07T11:24:15;7.60;;;2.47;;
12120;SDS011;6124;59.460;17.908;2022-12-07T11:26:49;6.33;;;2.40;;
12120;SDS011;6124;59.460;17.908;2022-12-07T11:29:27;6.60;;;2.23;;
12120;SDS011;6124;59.460;17.908;2022-12-07T11:31:58;5.70;;;2.10;;
12120;SDS011;6124;59.460;17.908;2022-12-07T11:34:31;6.70;;;2.10;;
12120;SDS011;6124;59.460;17.908;2022-12-07T11:37:00;6.53;;;2.40;;
12120;SDS011;6124;59.460;17.908;2022-12-07T11:39:30;6.57;;;2.20;;
12120;SDS011;6124;59.460;17.908;2022-12-07T11:42:00;8.03;;;2.40;;
12120;SDS011;6124;59.460;17.908;2022-12-07T11:44:32;6.13;;;2.73;;
12120;SDS011;6124;59.460;17.908;2022-12-07T11:47:02;23.90;;;14.40;;
12120;SDS011;6124;59.460;17.908;2022-12-07T11:49:37;43.27;;;25.90;;
12120;SDS011;6124;59.460;17.908;2022-12-07T11:52:09;31.77;;;19.57;;
12120;SDS011;6124;59.460;17.908;2022-12-07T11:54:40;19.17;;;8.00;;
12120;SDS011;6124;59.460;17.908;2022-12-07T11:57:09;9.17;;;5.77;;
12120;SDS011;6124;59.460;17.908;2022-12-07T11:59:41;7.63;;;3.93;;
12120;SDS011;6124;59.460;17.908;2022-12-07T12:02:12;9.30;;;4.73;;
12120;SDS011;6124;59.460;17.908;2022-12-07T12:04:43;11.53;;;6.10;;
12120;SDS011;6124;59.460;17.908;2022-12-07T12:07:14;16.30;;;8.83;;
12120;SDS011;6124;59.460;17.908;2022-12-07T12:09:45;14.30;;;3.47;;
12120;SDS011;6124;59.460;17.908;2022-12-07T12:12:21;8.70;;;2.67;;
12120;SDS011;6124;59.460;17.908;2022-12-07T12:14:57;9.97;;;4.43;;
12120;SDS011;6124;59.460;17.908;2022-12-07T12:17:39;6.87;;;2.53;;
12120;SDS011;6124;59.460;17.908;2022-12-07T12:20:15;7.70;;;3.53;;
12120;SDS011;6124;59.460;17.908;2022-12-07T12:22:45;9.57;;;4.27;;
12120;SDS011;6124;59.460;17.908;2022-12-07T12:25:16;25.50;;;14.60;;
12120;SDS011;6124;59.460;17.908;2022-12-07T12:27:46;17.33;;;10.30;;
12120;SDS011;6124;59.460;17.908;2022-12-07T12:30:26;12.97;;;6.13;;
12120;SDS011;6124;59.460;17.908;2022-12-07T12:33:01;8.43;;;4.73;;
12120;SDS011;6124;59.460;17.908;2022-12-07T12:35:30;10.93;;;3.73;;
12120;SDS011;6124;59.460;17.908;2022-12-07T12:40:40;6.50;;;2.70;;
12120;SDS011;6124;59.460;17.908;2022-12-07T12:48:37;9.90;;;4.00;;
12120;SDS011;6124;59.460;17.908;2022-12-07T12:53:49;13.83;;;8.33;;
12120;SDS011;6124;59.460;17.908;2022-12-07T12:56:32;8.30;;;4.37;;
12120;SDS011;6124;59.460;17.908;2022-12-07T13:01:51;8.43;;;3.30;;
12120;SDS011;6124;59.460;17.908;2022-12-07T13:04:24;6.57;;;3.20;;
12120;SDS011;6124;59.460;17.908;2022-12-07T13:06:52;7.00;;;2.90;;
12120;SDS011;6124;59.460;17.908;2022-12-07T13:09:21;12.27;;;4.40;;
12120;SDS011;6124;59.460;17.908;2022-12-07T13:11:49;28.47;;;12.40;;
12120;SDS011;6124;59.460;17.908;2022-12-07T13:22:59;55.30;;;27.53;;
12120;SDS011;6124;59.460;17.908;2022-12-07T13:25:29;16.40;;;7.67;;
12120;SDS011;6124;59.460;17.908;2022-12-07T13:27:58;26.53;;;13.73;;
12120;SDS011;6124;59.460;17.908;2022-12-07T13:30:27;12.40;;;6.37;;
12120;SDS011;6124;59.460;17.908;2022-12-07T13:32:57;12.27;;;5.23;;
12120;SDS011;6124;59.460;17.908;2022-12-07T13:35:32;7.60;;;3.83;;
12120;SDS011;6124;59.460;17.908;2022-12-07T13:38:02;7.53;;;3.70;;
12120;SDS011;6124;59.460;17.908;2022-12-07T13:40:33;13.63;;;5.90;;
12120;SDS011;6124;59.460;17.908;2022-12-07T13:43:01;9.93;;;5.57;;
12120;SDS011;6124;59.460;17.908;2022-12-07T13:45:29;10.27;;;5.70;;
12120;SDS011;6124;59.460;17.908;2022-12-07T13:48:20;8.93;;;3.30;;
12120;SDS011;6124;59.460;17.908;2022-12-07T13:50:52;7.47;;;3.53;;
12120;SDS011;6124;59.460;17.908;2022-12-07T13:53:21;10.93;;;5.80;;
12120;SDS011;6124;59.460;17.908;2022-12-07T13:55:48;10.30;;;4.70;;
12120;SDS011;6124;59.460;17.908;2022-12-07T13:58:15;12.47;;;3.60;;
12120;SDS011;6124;59.460;17.908;2022-12-07T14:00:43;6.17;;;3.30;;
12120;SDS011;6124;59.460;17.908;2022-12-07T14:03:30;12.40;;;5.97;;
12120;SDS011;6124;59.460;17.908;2022-12-07T14:06:13;9.27;;;5.77;;
12120;SDS011;6124;59.460;17.908;2022-12-07T14:08:43;5.83;;;3.60;;
12120;SDS011;6124;59.460;17.908;2022-12-07T14:11:13;21.53;;;11.77;;
12120;SDS011;6124;59.460;17.908;2022-12-07T14:13:44;17.60;;;10.43;;
12120;SDS011;6124;59.460;17.908;2022-12-07T14:16:17;11.57;;;4.20;;
12120;SDS011;6124;59.460;17.908;2022-12-07T14:18:46;8.40;;;5.43;;
12120;SDS011;6124;59.460;17.908;2022-12-07T14:21:14;7.47;;;3.43;;
12120;SDS011;6124;59.460;17.908;2022-12-07T14:23:43;5.83;;;3.30;;
12120;SDS011;6124;59.460;17.908;2022-12-07T14:26:12;9.30;;;2.90;;
12120;SDS011;6124;59.460;17.908;2022-12-07T14:28:40;6.93;;;3.20;;
12120;SDS011;6124;59.460;17.908;2022-12-07T14:31:10;9.40;;;3.47;;
12120;SDS011;6124;59.460;17.908;2022-12-07T14:33:38;10.83;;;3.90;;
12120;SDS011;6124;59.460;17.908;2022-12-07T14:36:07;9.77;;;4.23;;
12120;SDS011;6124;59.460;17.908;2022-12-07T14:38:35;6.67;;;3.00;;
12120;SDS011;6124;59.460;17.908;2022-12-07T14:41:04;7.27;;;2.73;;
12120;SDS011;6124;59.460;17.908;2022-12-07T14:43:50;5.60;;;2.60;;
12120;SDS011;6124;59.460;17.908;2022-12-07T14:46:17;9.53;;;3.37;;
12120;SDS011;6124;59.460;17.908;2022-12-07T14:48:44;7.77;;;3.30;;
12120;SDS011;6124;59.460;17.908;2022-12-07T14:51:12;7.70;;;3.23;;
12120;SDS011;6124;59.460;17.908;2022-12-07T14:53:40;8.60;;;3.60;;
12120;SDS011;6124;59.460;17.908;2022-12-07T14:56:09;9.83;;;3.93;;
12120;SDS011;6124;59.460;17.908;2022-12-07T14:58:36;8.60;;;4.50;;
12120;SDS011;6124;59.460;17.908;2022-12-07T15:01:03;7.83;;;4.40;;
12120;SDS011;6124;59.460;17.908;2022-12-07T15:03:30;10.07;;;4.83;;
12120;SDS011;6124;59.460;17.908;2022-12-07T15:05:59;11.13;;;4.77;;
12120;SDS011;6124;59.460;17.908;2022-12-07T15:08:26;12.43;;;5.07;;
12120;SDS011;6124;59.460;17.908;2022-12-07T15:10:54;11.83;;;5.53;;
12120;SDS011;6124;59.460;17.908;2022-12-07T15:13:22;13.37;;;5.33;;
12120;SDS011;6124;59.460;17.908;2022-12-07T15:16:08;16.27;;;5.27;;
12120;SDS011;6124;59.460;17.908;2022-12-07T15:18:36;14.10;;;4.77;;
12120;SDS011;6124;59.460;17.908;2022-12-07T15:21:04;10.63;;;5.57;;
12120;SDS011;6124;59.460;17.908;2022-12-07T15:23:31;14.03;;;5.70;;
12120;SDS011;6124;59.460;17.908;2022-12-07T15:25:58;15.37;;;5.83;;
12120;SDS011;6124;59.460;17.908;2022-12-07T15:28:27;17.33;;;6.30;;